Etusivu
METAR-TAF:

METAR-TAF

Lentoasemat :

Jersey,

Leveyspiiri: 49-13N, Pituuspiiri: 002-12W, korkeus merenpinnasta: 84 m

Tämänhetkinen sää

Tämä raportti tehtiin 48 minuuttia sitten, kello 03.20 UTC
Tuuli 2 kn lännestä
Lämpötila 8°C
Kosteus 93%
Ilmanpaine 1026 hPa
Näkyvyys 10 km tai enemmän

METAR: EGJJ 190320Z AUTO 28002KT 9999 FEW011/// OVC031/// 08/07 Q1026

Aika: 04:08 (04:08 UTC)

Sääennuste

Tämä raportti tehtiin 2 tuntia ja 9 minuuttia sitten, kello 01.59 UTC
Ennuste voimassa 19. päivästä klo 03 UTC - 19. päivään klo 12 UTC
Tuuli 3 kn eri suunnista
Näkyvyys 10 km tai enemmän
Muutamia pilviä 1000 ft:n korkeudessa
Hajonneita pilviä 3000 ft:n korkeudessa
Todennäköisyys 30% :
Ajoittain
19. päivästä klo 03 UTC - 19. päivään klo 12 UTC
Näkyvyys: 6000 m
Hajonneita pilviä 1500 ft:n korkeudessa
heikkoja vesikuuroja

TAF: EGJJ 190159Z 1903/1912 VRB03KT 9999 FEW010 BKN030 PROB30 TEMPO 1903/1912 6000 -SHRA BKN015

Säähavainnot ja -ennusteet yli 4000 lentoasemalta (METAR- ja TAF-raportit).

Käytössä olevat sääasemat on merkitty karttaan keltaisilla ja punaisilla pisteillä.

Aseta hiiri pisteen päälle nähdäksesi sääaseman nimen.

Klikkaa sitten nähdäksesi säähavainnot ja -ennusteet.

Kartan vaihtaminen: klikkaa mustalla rastilla varustettuja vihreitä pisteitä, niin voit zoomata sisään; viivalla varustettua vihreää pistettä, niin voit zoomata ulos tai vihreitä nuolia, niin pääset viereisille kartoille.


METAR-TAF: